< < Back
Terminal Aerodrome Forecast


Current Version              Previous Versions:   1  2  3  4  5  6  7  8  9  

Terminal Aerodrome Forecast

441
FTUS42 KJAX 061825 AAA
TAFJAX
TAF AMD
KJAX 061825Z 0618/0718 03014G21KT P6SM SCT020 OVC080
      TEMPO 0618/0620 BKN020
     FM062000 02014G22KT P6SM VCSH BKN020 OVC060
     FM070000 36012G21KT 6SM -RA BR OVC015
     FM070400 34012KT 5SM -RA BR OVC008
     FM071300 32017G25KT P6SM VCSH SCT007 OVC015
     FM071600 32015G23KT P6SM SCT015 BKN025=

Latest METAR

338
SAUS80 KWBC 070100
MTRJAX
METAR KJAX 070056Z 33010KT 1 1/2SM -RA BR BKN008 OVC012 07/06 A3013 RMK
AO2 SFC VIS 3 SLP203 P0003 T00720061


USA.gov is the U.S. government's official web portal to all federal, state and local government web resources and services.